»·PEaware :: AAL5426 KASE-KDEN

AAL5426 :: KASE-KDEN

FLIGHT INFORMATION

Flight Status: Arrived
Operator:
American Airlines
More flights by this operator :: More flights under this callsign
Pilot: Alex K. (14822)
Aircraft: BOEING 757-200
(B752)
More flights by this aircraft type
Origin: KASE Aspen-Pitkin Co/Sardy
United States
Destination: KDEN Denver Intl
United States
More flights between these airports :: More routes between these airports
Route: +LINDZ8 DBL JNETT CREDE3
File this flight plan on PilotEdge
Remarks: Round 1, fight!
Altitude:
(Current/Filed)
31,000ft
Speed:
(Current/Filed)
446kts
Departed: 18-Oct-17 08:19 AM
Arrived: 18-Oct-17 08:53 AM
Distance/Time
Traveled:
108nm/0:33
Distance/Time
To Go:
Arrived

Flight Plot

Page will automatically refresh every two minutes.


Map Options




Map Legend


Flown Route
Filed Route
Departure Airport
Arrival Airport
Navaid (VOR, NDB)
Fix

Horizontal Profiles

Position Reports

Time Latitude Longitude Heading Altitude Ground
Speed
18-Oct-17 07:59 39.222410 -106.866754 125 7829ft 0kts
18-Oct-17 08:00 39.222410 -106.866754 125 7829ft 0kts
18-Oct-17 08:01 39.222410 -106.866754 125 7829ft 0kts
18-Oct-17 08:02 39.222410 -106.866754 125 7829ft 0kts
18-Oct-17 08:03 39.222410 -106.866754 125 7829ft 0kts
18-Oct-17 08:04 39.222410 -106.866754 125 7829ft 0kts
18-Oct-17 08:05 39.222410 -106.866754 125 7829ft 0kts
18-Oct-17 08:06 39.222410 -106.866754 125 7829ft 0kts
18-Oct-17 08:07 39.222410 -106.866754 125 7829ft 0kts
18-Oct-17 08:08 39.222410 -106.866754 125 7828ft 0kts
18-Oct-17 08:09 39.222410 -106.866754 125 7828ft 0kts
18-Oct-17 08:10 39.222410 -106.866754 125 7828ft 0kts
18-Oct-17 08:11 39.222410 -106.866754 125 7828ft 0kts
18-Oct-17 08:12 39.222410 -106.866754 125 7828ft 0kts
18-Oct-17 08:13 39.222410 -106.866755 125 7829ft 0kts
18-Oct-17 08:14 39.222410 -106.866755 125 7829ft 0kts
18-Oct-17 08:15 39.222410 -106.866755 125 7829ft 0kts
18-Oct-17 08:16 39.222545 -106.866995 125 7828ft 2kts
18-Oct-17 08:17 39.222791 -106.867213 170 7829ft 0kts
18-Oct-17 08:18 39.222790 -106.867213 170 7829ft 0kts
18-Oct-17 08:19 39.221460 -106.866830 159 7828ft 11kts
18-Oct-17 08:20 39.219013 -106.865690 160 7829ft 11kts
18-Oct-17 08:21 39.215582 -106.864119 160 7829ft 11kts
18-Oct-17 08:22 39.214822 -106.864847 333 7828ft 4kts
18-Oct-17 08:23 39.214895 -106.864884 339 7828ft 1kts
18-Oct-17 08:24 39.244454 -106.875144 356 9064ft 162kts
18-Oct-17 08:25 39.267935 -106.909733 281 10331ft 199kts
18-Oct-17 08:26 39.280137 -106.995420 283 11640ft 299kts
18-Oct-17 08:27 39.352495 -107.097503 336 14951ft 368kts
18-Oct-17 08:28 39.435897 -107.093116 28 17997ft 385kts
18-Oct-17 08:29 39.492306 -106.975898 82 20981ft 429kts
18-Oct-17 08:30 39.464103 -106.825914 126 24008ft 438kts
18-Oct-17 08:31 39.400196 -106.696087 110 25414ft 439kts
18-Oct-17 08:32 39.365385 -106.544533 106 25409ft 443kts
18-Oct-17 08:33 39.326405 -106.395339 112 25458ft 441kts
18-Oct-17 08:34 39.282775 -106.248550 113 25557ft 439kts
18-Oct-17 08:35 39.253742 -106.106945 87 25562ft 403kts
18-Oct-17 08:36 39.271526 -105.958309 78 25565ft 445kts
18-Oct-17 08:37 39.293285 -105.802844 78 25563ft 444kts
18-Oct-17 08:38 39.321733 -105.649760 60 24275ft 435kts
18-Oct-17 08:39 39.376416 -105.518577 59 22452ft 391kts
18-Oct-17 08:40 39.430234 -105.407157 53 20637ft 348kts
18-Oct-17 08:41 39.482730 -105.307292 53 18933ft 333kts
18-Oct-17 08:42 39.533481 -105.214524 53 17430ft 336kts
18-Oct-17 08:43 39.586533 -105.117817 57 16010ft 328kts
18-Oct-17 08:44 39.629256 -105.014653 51 15016ft 321kts
18-Oct-17 08:45 39.683233 -104.926328 51 14039ft 313kts
18-Oct-17 08:46 39.740485 -104.849214 11 13036ft 296kts
18-Oct-17 08:47 39.819590 -104.839978 0 11997ft 281kts
18-Oct-17 08:48 39.894864 -104.838635 359 10964ft 260kts
18-Oct-17 08:49 39.965923 -104.837869 358 10227ft 259kts
18-Oct-17 08:50 40.037096 -104.837218 359 9067ft 251kts
18-Oct-17 08:51 40.099523 -104.817898 58 7888ft 245kts
18-Oct-17 08:52 40.092843 -104.741288 143 7000ft 213kts
18-Oct-17 08:53 40.047907 -104.697467 144 6979ft 202kts
18-Oct-17 08:54 40.000665 -104.685562 182 6953ft 144kts
18-Oct-17 08:55 39.962379 -104.685997 182 6599ft 137kts
18-Oct-17 08:56 39.924907 -104.686415 183 5911ft 135kts
18-Oct-17 08:57 39.888531 -104.686890 182 5371ft 110kts
18-Oct-17 08:58 39.871317 -104.685188 163 5357ft 24kts
18-Oct-17 08:59 39.864553 -104.683800 177 5330ft 20kts
18-Oct-17 09:00 39.858187 -104.683848 178 5337ft 25kts
18-Oct-17 09:01 39.856544 -104.679981 114 5362ft 11kts
18-Oct-17 09:02 39.855238 -104.674569 90 5395ft 19kts
18-Oct-17 09:03 39.854376 -104.672212 187 5406ft 0kts

Navigation Log

Ident Type
1. KASE Airport
2. LINDZ Fix
3. DBL Navaid
4. JNETT Fix
5. KDEN Airport